Terminal Aerodrome Forecast
Issued by NWS

Home | Current Version | Previous Version | Graphics & Text | Print | Product List | Glossary On
Versions: 1 2 3 4 5 6 7 8 9 10 11 12 13 14 15 16 17 18 19 20 21
000
FTUS43 KFGF 271013 AAA
TAFBJI
TAF AMD
KBJI 271013Z 2710/2806 15004KT P6SM FEW250
      TEMPO 2710/2713 1/2SM FG VV005
     FM271700 15010G18KT P6SM SKC=

USA.gov is the U.S. government's official web portal to all federal, state and local government web resources and services.